Time;durP1;ratioP1;P1;durP2;ratioP2;P2;SDS_P1;SDS_P2;PMS_P1;PMS_P2;Temp;Humidity;BMP_temperature;BMP_pressure;BME280_temperature;BME280_humidity;BME280_pressure;Samples;Min_cycle;Max_cycle;Signal;HPM_P1;HPM_P2
2023/03/06 05:00:30;;;;;;;1.25;1.25;;;1.40;99.90;;;;;;5966907;23;20579;31
2023/03/06 05:02:58;;;;;;;0.80;0.70;;;1.40;99.90;;;;;;4909118;29;20360;-68
2023/03/06 05:05:25;;;;;;;1.17;1.13;;;1.40;99.90;;;;;;4912315;29;20256;-67
2023/03/06 05:07:53;;;;;;;1.85;1.35;;;1.40;99.90;;;;;;4913028;29;20219;-68
2023/03/06 05:10:20;;;;;;;0.82;0.82;;;1.40;99.90;;;;;;4912829;29;20207;-67
2023/03/06 05:12:47;;;;;;;1.20;1.00;;;1.40;99.90;;;;;;4889483;29;20209;-67
2023/03/06 05:15:14;;;;;;;2.70;1.13;;;1.40;99.90;;;;;;4895656;29;20226;-68
2023/03/06 05:17:42;;;;;;;1.50;1.50;;;1.40;99.90;;;;;;4888937;29;20220;-68
2023/03/06 05:20:12;;;;;;;0.50;0.50;;;1.40;99.90;;;;;;4893629;29;20246;-68
2023/03/06 05:22:39;;;;;;;0.38;0.38;;;1.40;99.90;;;;;;4894486;29;20227;-68
2023/03/06 05:25:06;;;;;;;1.98;1.98;;;1.40;99.90;;;;;;4893227;29;20207;-68
2023/03/06 05:27:33;;;;;;;0.63;0.63;;;1.40;99.90;;;;;;4894846;29;20218;-68
2023/03/06 05:30:00;;;;;;;0.43;0.43;;;1.30;99.90;;;;;;4894979;29;20234;-68
2023/03/06 05:32:27;;;;;;;1.73;1.63;;;1.30;99.90;;;;;;4889173;29;20231;-68
2023/03/06 05:34:55;;;;;;;0.82;0.82;;;1.30;99.90;;;;;;4892315;29;20221;-68
2023/03/06 05:37:22;;;;;;;0.60;0.60;;;1.40;99.90;;;;;;4887435;29;20264;-68
2023/03/06 05:39:49;;;;;;;1.75;1.65;;;1.30;99.90;;;;;;4885890;29;20207;-68
2023/03/06 05:42:17;;;;;;;2.42;1.38;;;1.30;99.90;;;;;;4891237;29;20251;-68
2023/03/06 05:44:44;;;;;;;4.70;1.13;;;1.30;99.90;;;;;;4889536;29;20211;-68
2023/03/06 05:47:11;;;;;;;2.55;2.35;;;1.30;99.90;;;;;;4884384;29;20207;-68
2023/03/06 05:49:37;;;;;;;1.00;0.98;;;1.30;99.90;;;;;;4881325;29;20222;-68
2023/03/06 05:52:08;;;;;;;1.42;0.68;;;1.30;99.90;;;;;;4885081;29;20225;-68
2023/03/06 05:54:36;;;;;;;1.48;0.55;;;1.30;99.90;;;;;;4882865;29;20215;-67
2023/03/06 05:57:04;;;;;;;2.80;2.60;;;1.30;99.90;;;;;;4878890;29;20487;-68
2023/03/06 05:59:31;;;;;;;3.28;2.47;;;1.30;99.90;;;;;;4894577;29;20215;-68
2023/03/06 06:01:58;;;;;;;4.13;1.13;;;1.30;99.90;;;;;;4887123;29;20235;-67
2023/03/06 06:04:26;;;;;;;2.45;2.25;;;1.30;99.90;;;;;;4894866;29;20222;-68
2023/03/06 06:06:54;;;;;;;2.75;2.50;;;1.30;99.90;;;;;;4888091;29;20244;-67
2023/03/06 06:09:22;;;;;;;3.88;3.53;;;1.30;99.90;;;;;;4898434;29;20298;-67
2023/03/06 06:11:52;;;;;;;1.73;1.63;;;1.30;99.90;;;;;;4891114;29;20707;-67
2023/03/06 06:14:18;;;;;;;1.48;1.48;;;1.30;99.90;;;;;;4897611;29;20232;-67
2023/03/06 06:16:45;;;;;;;5.95;2.60;;;1.40;99.90;;;;;;4889793;29;20607;-67
2023/03/06 06:19:17;;;;;;;1.95;1.55;;;1.40;99.90;;;;;;4896422;29;20218;-67
2023/03/06 06:21:44;;;;;;;1.05;1.05;;;1.40;99.90;;;;;;4893345;29;20234;-67
2023/03/06 06:24:11;;;;;;;1.48;0.80;;;1.40;99.90;;;;;;4894933;29;20231;-67
2023/03/06 06:26:40;;;;;;;2.15;1.50;;;1.40;99.90;;;;;;4887810;29;20212;-67
2023/03/06 06:29:07;;;;;;;3.67;2.20;;;1.40;99.90;;;;;;4889875;29;20539;-67
2023/03/06 06:31:35;;;;;;;1.20;1.20;;;1.40;99.90;;;;;;4892843;29;20735;-67
2023/03/06 06:34:02;;;;;;;6.70;2.00;;;1.40;99.90;;;;;;4894004;29;20681;-67
2023/03/06 06:36:29;;;;;;;3.05;2.90;;;1.50;99.90;;;;;;4888495;29;20229;-67
2023/03/06 06:38:55;;;;;;;1.25;1.10;;;1.50;99.90;;;;;;4897110;29;20647;-67
2023/03/06 06:41:22;;;;;;;0.90;0.90;;;1.50;99.90;;;;;;4887503;29;20311;-67
2023/03/06 06:43:50;;;;;;;0.38;0.38;;;1.50;99.90;;;;;;4886012;29;20239;-67
2023/03/06 06:46:17;;;;;;;0.70;0.70;;;1.50;99.90;;;;;;4895247;29;20214;-67
2023/03/06 06:48:44;;;;;;;6.55;1.50;;;1.50;99.90;;;;;;4893154;29;20218;-68
2023/03/06 06:51:10;;;;;;;2.38;2.28;;;1.50;99.90;;;;;;4893275;29;20231;-67
2023/03/06 06:53:37;;;;;;;1.75;1.65;;;1.50;99.90;;;;;;4894354;29;20215;-67
2023/03/06 06:56:04;;;;;;;0.65;0.65;;;1.50;99.90;;;;;;4896997;29;20211;-67
2023/03/06 06:58:31;;;;;;;1.33;1.33;;;1.50;99.90;;;;;;4898687;29;20214;-67
2023/03/06 07:01:05;;;;;;;0.30;0.30;;;1.60;99.90;;;;;;4895354;29;20257;-67
2023/03/06 07:03:31;;;;;;;0.75;0.75;;;1.60;99.90;;;;;;4886529;29;20231;-67
2023/03/06 07:05:58;;;;;;;2.90;1.00;;;1.60;99.90;;;;;;4897279;29;20302;-67
2023/03/06 07:08:25;;;;;;;1.75;1.75;;;1.60;99.90;;;;;;4894054;29;20591;-67
2023/03/06 07:10:52;;;;;;;2.38;1.17;;;1.70;99.90;;;;;;4890295;29;20235;-68
2023/03/06 07:13:19;;;;;;;3.90;3.35;;;1.70;99.90;;;;;;4888763;29;20211;-68
2023/03/06 07:15:46;;;;;;;4.97;2.10;;;1.80;99.90;;;;;;4891740;29;20207;-67
2023/03/06 07:18:14;;;;;;;1.15;1.15;;;1.80;99.90;;;;;;4896273;29;20211;-68
2023/03/06 07:20:40;;;;;;;0.75;0.75;;;1.80;99.90;;;;;;4897391;29;20320;-68
2023/03/06 07:23:11;;;;;;;1.05;1.05;;;1.80;99.90;;;;;;4889545;29;20231;-68
2023/03/06 07:25:37;;;;;;;1.50;0.73;;;1.90;99.90;;;;;;4891477;29;20219;-66
2023/03/06 07:28:04;;;;;;;0.85;0.85;;;1.90;99.90;;;;;;4887273;29;20418;-66
2023/03/06 07:30:31;;;;;;;0.43;0.43;;;1.90;99.90;;;;;;4890514;29;20217;-68
2023/03/06 07:32:58;;;;;;;7.63;1.80;;;2.00;99.90;;;;;;4890281;29;20673;-67
2023/03/06 07:35:27;;;;;;;1.10;1.05;;;2.00;99.90;;;;;;4888596;29;20219;-67
2023/03/06 07:37:53;;;;;;;1.38;0.93;;;2.10;99.90;;;;;;4890869;29;20215;-68
2023/03/06 07:40:20;;;;;;;1.63;1.52;;;2.10;99.90;;;;;;4891502;29;20654;-67
2023/03/06 07:42:47;;;;;;;1.50;1.50;;;2.10;99.90;;;;;;4887731;29;20596;-68
2023/03/06 07:45:14;;;;;;;1.83;1.75;;;2.10;99.90;;;;;;4893221;29;20215;-67
2023/03/06 07:47:41;;;;;;;4.30;1.40;;;2.10;99.90;;;;;;4892211;29;20218;-69
2023/03/06 07:50:08;;;;;;;0.30;0.30;;;2.20;99.90;;;;;;4889786;29;20211;-67
2023/03/06 07:52:36;;;;;;;0.52;0.52;;;2.10;99.90;;;;;;4891744;29;20234;-68
2023/03/06 07:55:04;;;;;;;0.60;0.60;;;2.10;99.90;;;;;;4883728;29;20223;-68
2023/03/06 07:57:30;;;;;;;3.70;2.92;;;2.20;99.90;;;;;;4891386;29;20210;-68
2023/03/06 07:59:57;;;;;;;1.05;1.05;;;2.20;99.90;;;;;;4895971;29;20215;-69
2023/03/06 08:02:24;;;;;;;1.65;1.00;;;2.30;99.90;;;;;;4886412;29;20239;-68
2023/03/06 08:04:54;;;;;;;2.15;2.05;;;2.30;99.90;;;;;;4889894;29;20219;-67
2023/03/06 08:07:22;;;;;;;1.88;1.77;;;2.30;99.90;;;;;;4895238;29;20693;-69
2023/03/06 08:09:51;;;;;;;1.95;1.95;;;2.30;99.90;;;;;;4893561;29;20207;-69
2023/03/06 08:12:17;;;;;;;3.25;2.38;;;2.30;99.90;;;;;;4896453;29;20258;-68
2023/03/06 08:14:44;;;;;;;0.93;0.70;;;2.30;99.90;;;;;;4877926;29;20215;-69
2023/03/06 08:17:11;;;;;;;0.73;0.73;;;2.30;99.90;;;;;;4887906;29;20228;-68
2023/03/06 08:19:37;;;;;;;2.47;1.90;;;2.30;99.90;;;;;;4895354;29;20215;-68
2023/03/06 08:22:04;;;;;;;1.95;0.85;;;2.30;99.90;;;;;;4894112;29;20239;-69
2023/03/06 08:24:31;;;;;;;4.57;3.42;;;2.40;99.90;;;;;;4894840;29;20228;-69
2023/03/06 08:27:00;;;;;;;2.53;1.17;;;2.40;99.90;;;;;;4887933;29;20237;-68
2023/03/06 08:29:27;;;;;;;0.50;0.50;;;2.40;99.90;;;;;;4882009;29;20286;-67
2023/03/06 08:31:54;;;;;;;1.77;0.90;;;2.40;99.90;;;;;;4895810;29;20235;-67
2023/03/06 08:34:23;;;;;;;2.15;1.38;;;2.40;99.90;;;;;;4888171;29;20206;-68
2023/03/06 08:36:50;;;;;;;1.40;1.40;;;2.40;99.90;;;;;;4893663;29;20251;-68
2023/03/06 08:39:17;;;;;;;0.73;0.73;;;2.40;99.90;;;;;;4892043;29;20223;-68
2023/03/06 08:41:43;;;;;;;1.02;1.02;;;2.40;99.90;;;;;;4897070;29;20235;-67
2023/03/06 08:44:11;;;;;;;1.95;1.90;;;2.50;99.90;;;;;;4893910;29;20227;-67
2023/03/06 08:46:38;;;;;;;1.13;1.13;;;2.50;99.90;;;;;;4890578;29;20204;-68
2023/03/06 08:49:05;;;;;;;0.77;0.77;;;2.40;99.90;;;;;;4886352;29;20204;-69
2023/03/06 08:51:32;;;;;;;1.10;1.10;;;2.50;99.90;;;;;;4890503;29;20279;-69
2023/03/06 08:53:59;;;;;;;3.50;1.00;;;2.50;99.90;;;;;;4886072;29;20208;-69
2023/03/06 08:56:27;;;;;;;1.50;0.85;;;2.50;99.90;;;;;;4893102;29;20231;-70
2023/03/06 08:58:56;;;;;;;0.40;0.40;;;2.70;99.90;;;;;;4894460;29;20214;-70
2023/03/06 09:01:26;;;;;;;0.77;0.77;;;2.80;99.90;;;;;;4897571;29;20231;-68
2023/03/06 09:03:54;;;;;;;0.98;0.93;;;2.90;99.90;;;;;;4885767;29;20242;-68
2023/03/06 09:06:22;;;;;;;6.88;0.88;;;3.00;99.90;;;;;;4890147;29;20230;-68
2023/03/06 09:08:51;;;;;;;2.35;1.60;;;3.00;99.90;;;;;;4895056;29;20226;-69
2023/03/06 09:11:18;;;;;;;1.27;1.27;;;2.90;99.90;;;;;;4887834;29;20250;-69
2023/03/06 09:13:45;;;;;;;1.35;1.15;;;2.90;99.90;;;;;;4891296;29;20215;-68
2023/03/06 09:16:12;;;;;;;2.00;2.00;;;3.00;99.90;;;;;;4893593;29;20207;-69
2023/03/06 09:18:40;;;;;;;5.72;4.60;;;3.00;99.90;;;;;;4889842;29;20210;-69
2023/03/06 09:21:07;;;;;;;0.63;0.60;;;3.10;99.90;;;;;;4888798;29;20235;-69
2023/03/06 09:23:35;;;;;;;1.00;0.65;;;3.10;99.90;;;;;;4893286;29;20243;-68
2023/03/06 09:26:02;;;;;;;2.28;1.27;;;3.30;99.90;;;;;;4890988;29;20224;-68
2023/03/06 09:28:29;;;;;;;1.95;1.85;;;3.40;99.90;;;;;;4893381;29;20219;-68
2023/03/06 09:30:56;;;;;;;3.58;1.60;;;3.40;99.90;;;;;;4893723;29;20639;-69
2023/03/06 09:33:23;;;;;;;1.05;1.05;;;3.40;99.90;;;;;;4891445;29;20208;-69
2023/03/06 09:35:52;;;;;;;1.83;1.73;;;3.40;99.90;;;;;;4886929;29;20230;-68
2023/03/06 09:38:20;;;;;;;0.90;0.90;;;3.40;99.90;;;;;;4894565;29;20307;-69
2023/03/06 09:40:59;;;;;;;0.85;0.85;;;3.40;99.90;;;;;;4885323;29;20255;-69
2023/03/06 09:43:30;;;;;;;2.22;2.15;;;3.40;99.90;;;;;;4893303;29;20767;-69
2023/03/06 09:45:57;;;;;;;1.33;0.80;;;3.50;99.90;;;;;;4893956;29;20215;-69
2023/03/06 09:48:33;;;;;;;3.00;2.53;;;3.40;99.90;;;;;;4883841;29;20223;-69
2023/03/06 09:51:06;;;;;;;1.35;1.35;;;3.50;99.90;;;;;;4891859;29;20234;-69
2023/03/06 09:53:47;;;;;;;0.25;0.25;;;3.50;99.90;;;;;;4892009;29;20227;-69
2023/03/06 09:56:16;;;;;;;3.22;2.97;;;3.50;99.90;;;;;;4894765;29;20225;-69
2023/03/06 09:58:46;;;;;;;2.47;2.28;;;3.40;99.90;;;;;;4887713;29;20571;-71
2023/03/06 10:01:19;;;;;;;2.70;1.80;;;3.40;99.90;;;;;;4893438;29;20692;-69
2023/03/06 10:03:51;;;;;;;0.82;0.82;;;3.50;99.90;;;;;;4894388;29;20679;-69
2023/03/06 10:06:26;;;;;;;0.52;0.52;;;3.50;99.90;;;;;;4894298;29;20198;-69
2023/03/06 10:08:59;;;;;;;1.63;0.32;;;3.50;99.90;;;;;;4890211;29;20214;-69
2023/03/06 10:11:32;;;;;;;0.50;0.50;;;3.50;99.90;;;;;;4886019;29;20227;-70
2023/03/06 10:14:13;;;;;;;0.35;0.35;;;3.50;99.90;;;;;;4891903;29;20536;-70
2023/03/06 10:16:40;;;;;;;8.13;2.15;;;3.40;99.90;;;;;;4908447;29;20215;-70
2023/03/06 10:19:13;;;;;;;1.35;1.35;;;3.40;99.90;;;;;;4894554;29;20324;-68
2023/03/06 10:21:51;;;;;;;1.38;1.38;;;3.40;99.90;;;;;;4885798;29;20227;-68
2023/03/06 10:24:34;;;;;;;3.10;1.40;;;3.50;99.90;;;;;;4891011;29;20235;-69
2023/03/06 10:27:12;;;;;;;1.88;0.73;;;3.50;99.90;;;;;;4890853;29;20200;-70
2023/03/06 10:29:51;;;;;;;1.10;0.82;;;3.60;99.90;;;;;;4885805;29;20826;-69
2023/03/06 10:32:27;;;;;;;4.82;2.72;;;3.60;99.90;;;;;;4890620;29;20245;-68
2023/03/06 10:34:57;;;;;;;2.30;2.30;;;3.60;99.90;;;;;;4891333;29;20207;-69
2023/03/06 10:37:28;;;;;;;0.95;0.95;;;3.70;99.90;;;;;;4884740;29;20219;-69
2023/03/06 10:40:00;;;;;;;1.73;1.63;;;3.80;99.90;;;;;;4894797;29;20219;-68
2023/03/06 10:42:27;;;;;;;2.25;2.10;;;3.90;99.90;;;;;;4894729;29;20235;-69
2023/03/06 10:45:07;;;;;;;9.05;1.90;;;3.90;99.90;;;;;;4893673;29;20231;-69
2023/03/06 10:47:35;;;;;;;25.27;11.52;;;3.80;99.90;;;;;;4887121;29;20302;-69
2023/03/06 10:50:05;;;;;;;27.63;16.23;;;3.70;99.90;;;;;;4893055;29;20233;-70
2023/03/06 10:52:34;;;;;;;1.33;1.23;;;3.80;99.90;;;;;;4904209;29;20262;-70
2023/03/06 10:55:25;;;;;;;1.23;1.23;;;3.90;99.90;;;;;;4905815;29;20203;-67
2023/03/06 10:57:53;;;;;;;0.95;0.63;;;4.10;99.90;;;;;;4897384;29;20234;-67
2023/03/06 11:00:31;;;;;;;0.47;0.47;;;4.20;99.90;;;;;;4897409;29;20226;-69
2023/03/06 11:03:21;;;;;;;1.48;0.75;;;4.10;99.90;;;;;;4891580;29;20211;-69
2023/03/06 11:06:08;;;;;;;1.42;1.38;;;4.10;99.90;;;;;;4892587;29;20927;-68
2023/03/06 11:08:37;;;;;;;0.47;0.47;;;4.30;99.90;;;;;;4886929;29;20223;-67
2023/03/06 11:11:06;;;;;;;1.40;1.40;;;4.40;99.90;;;;;;4893432;29;20231;-68
2023/03/06 11:13:35;;;;;;;2.10;2.10;;;4.40;99.90;;;;;;4909248;29;20217;-67
2023/03/06 11:16:05;;;;;;;2.42;2.30;;;4.40;99.90;;;;;;4911423;29;20218;-67
2023/03/06 11:18:36;;;;;;;3.72;3.42;;;4.30;99.90;;;;;;4893589;29;20214;-68
2023/03/06 11:21:07;;;;;;;1.42;1.42;;;4.40;99.90;;;;;;4904974;29;20696;-69
2023/03/06 11:23:43;;;;;;;2.10;1.77;;;4.50;99.90;;;;;;4891336;29;20227;-67
2023/03/06 11:26:26;;;;;;;12.77;1.00;;;4.50;99.90;;;;;;4889562;29;20703;-69
2023/03/06 11:29:06;;;;;;;1.75;1.70;;;4.60;99.90;;;;;;4882898;29;20545;-67
2023/03/06 11:31:36;;;;;;;4.57;1.17;;;4.60;99.90;;;;;;4886674;29;20241;-69
2023/03/06 11:34:09;;;;;;;1.38;1.27;;;4.60;99.90;;;;;;4900866;29;20217;-70
2023/03/06 11:36:39;;;;;;;1.70;1.60;;;4.70;99.90;;;;;;4906933;29;20227;-70
2023/03/06 11:39:21;;;;;;;0.85;0.85;;;4.60;99.90;;;;;;4892139;29;20222;-69
2023/03/06 11:41:53;;;;;;;1.63;0.57;;;4.40;99.90;;;;;;4890643;29;20235;-71
2023/03/06 11:44:29;;;;;;;1.38;1.20;;;4.30;99.90;;;;;;4890103;29;20235;-67
2023/03/06 11:47:05;;;;;;;1.50;1.50;;;4.10;99.90;;;;;;4888071;29;20207;-67
2023/03/06 11:49:38;;;;;;;0.77;0.77;;;4.10;99.90;;;;;;4892881;29;20404;-67
2023/03/06 11:52:10;;;;;;;0.70;0.70;;;4.00;99.90;;;;;;4903474;29;20338;-67
2023/03/06 11:54:38;;;;;;;0.43;0.43;;;4.00;99.90;;;;;;4896863;29;20214;-67
2023/03/06 11:57:12;;;;;;;0.73;0.73;;;4.00;99.90;;;;;;4894671;29;20226;-66
2023/03/06 12:00:02;;;;;;;0.57;0.57;;;4.00;99.90;;;;;;4895015;29;20210;-67
2023/03/06 12:02:43;;;;;;;0.45;0.45;;;4.10;99.90;;;;;;4892746;29;20255;-67
2023/03/06 12:05:25;;;;;;;2.28;2.28;;;4.20;99.90;;;;;;4880153;29;20578;-68
2023/03/06 12:08:01;;;;;;;0.55;0.55;;;4.20;99.90;;;;;;4908582;29;20206;-67
2023/03/06 12:10:35;;;;;;;2.92;0.93;;;4.20;99.90;;;;;;4880197;29;20210;-67
2023/03/06 12:13:26;;;;;;;0.43;0.43;;;4.10;99.90;;;;;;4896474;29;20805;-66
2023/03/06 12:16:23;;;;;;;0.30;0.30;;;4.10;99.90;;;;;;4887518;29;20219;-67
2023/03/06 12:18:58;;;;;;;0.80;0.80;;;4.00;99.90;;;;;;4886013;29;20208;-68
2023/03/06 12:21:33;;;;;;;2.47;0.68;;;4.00;99.90;;;;;;4893922;29;20243;-69
2023/03/06 12:24:24;;;;;;;0.30;0.30;;;4.00;99.90;;;;;;4893393;29;20218;-69
2023/03/06 12:27:15;;;;;;;0.60;0.60;;;4.00;99.90;;;;;;4897350;29;20211;-68
2023/03/06 12:29:59;;;;;;;0.90;0.65;;;4.00;99.90;;;;;;4900887;29;20214;-68
2023/03/06 12:32:39;;;;;;;1.80;0.60;;;4.20;99.90;;;;;;4885597;29;20532;-68
2023/03/06 12:35:29;;;;;;;2.10;1.95;;;4.30;99.90;;;;;;4878295;29;20200;-68
2023/03/06 12:38:08;;;;;;;0.43;0.43;;;4.60;99.90;;;;;;4885969;29;20216;-70
2023/03/06 12:40:49;;;;;;;0.20;0.20;;;4.70;99.90;;;;;;4878223;29;20236;-69
2023/03/06 12:44:07;;;;;;;0.85;0.85;;;4.90;99.90;;;;;;4877395;29;20192;-70
2023/03/06 12:46:37;;;;;;;0.57;0.32;;;4.90;99.90;;;;;;4878056;29;20204;-67
2023/03/06 12:49:09;;;;;;;0.47;0.47;;;5.00;99.90;;;;;;4878109;29;20208;-68
2023/03/06 12:51:38;;;;;;;1.67;0.80;;;5.00;99.90;;;;;;4888665;29;20251;-67
2023/03/06 12:54:06;;;;;;;2.38;2.25;;;5.00;99.90;;;;;;4893972;29;20214;-68
2023/03/06 12:56:34;;;;;;;2.25;1.88;;;5.00;99.90;;;;;;4896773;29;20297;-70
2023/03/06 12:59:02;;;;;;;0.52;0.52;;;5.10;99.90;;;;;;4896420;29;20230;-70
2023/03/06 13:01:47;;;;;;;1.15;1.15;;;5.20;99.90;;;;;;4895720;29;20259;-70
2023/03/06 13:04:34;;;;;;;0.93;0.93;;;5.20;99.90;;;;;;4895951;29;20200;-68
2023/03/06 13:07:15;;;;;;;0.60;0.60;;;5.30;99.90;;;;;;4895698;29;20728;-68
2023/03/06 13:10:13;;;;;;;0.60;0.30;;;5.40;99.90;;;;;;4888404;29;20559;-69
2023/03/06 13:12:55;;;;;;;0.10;0.10;;;5.40;99.90;;;;;;4895269;29;20239;-70
2023/03/06 13:15:41;;;;;;;1.27;0.90;;;5.50;99.90;;;;;;4895500;29;20196;-69
2023/03/06 13:18:47;;;;;;;0.55;0.55;;;5.60;99.90;;;;;;4896272;29;20226;-69
2023/03/06 13:21:43;;;;;;;5.03;1.60;;;5.70;99.90;;;;;;4896578;29;20235;-69
2023/03/06 13:24:17;;;;;;;6.03;3.38;;;5.90;99.90;;;;;;4895663;29;20664;-70
2023/03/06 13:26:55;;;;;;;1.85;1.13;;;5.90;99.90;;;;;;4879322;29;20226;-70
2023/03/06 13:29:58;;;;;;;3.03;1.50;;;6.00;99.90;;;;;;4886942;29;20215;-71
2023/03/06 13:32:34;;;;;;;1.70;0.50;;;6.10;99.90;;;;;;4890651;29;20311;-70
2023/03/06 13:35:01;;;;;;;2.00;1.90;;;6.10;99.90;;;;;;4907570;29;20223;-72
2023/03/06 13:37:50;;;;;;;1.38;0.30;;;6.10;99.90;;;;;;4890652;29;20215;-71
2023/03/06 13:40:28;;;;;;;0.30;0.30;;;6.00;99.90;;;;;;4892660;29;20258;-72
2023/03/06 13:43:13;;;;;;;0.63;0.63;;;5.90;99.90;;;;;;4889090;29;20218;-72
2023/03/06 13:45:42;;;;;;;0.85;0.85;;;5.90;99.90;;;;;;4890992;29;20227;-73
2023/03/06 13:48:31;;;;;;;0.77;0.77;;;5.90;99.90;;;;;;4888835;29;20218;-72
2023/03/06 13:50:58;;;;;;;1.88;0.95;;;5.90;99.90;;;;;;4891137;29;20310;-71
2023/03/06 13:53:58;;;;;;;3.45;3.28;;;5.90;99.90;;;;;;4890412;29;20230;-71
2023/03/06 13:56:56;;;;;;;4.60;3.13;;;6.00;99.90;;;;;;4880368;29;20204;-70
2023/03/06 13:59:44;;;;;;;4.93;2.65;;;6.20;99.90;;;;;;4895212;29;20215;-71
2023/03/06 14:02:35;;;;;;;7.00;2.15;;;6.20;99.90;;;;;;4893943;29;20246;-71
2023/03/06 14:05:12;;;;;;;0.95;0.50;;;6.20;99.90;;;;;;4894369;29;20712;-68
2023/03/06 14:07:42;;;;;;;1.67;1.05;;;6.20;99.90;;;;;;4890195;29;20206;-70
2023/03/06 14:10:19;;;;;;;0.50;0.50;;;6.30;99.90;;;;;;4893691;29;20237;-70
2023/03/06 14:13:00;;;;;;;1.50;1.50;;;6.30;99.90;;;;;;4910177;29;20277;-69
2023/03/06 14:15:35;;;;;;;0.75;0.75;;;6.20;99.90;;;;;;4890974;29;20305;-69
2023/03/06 14:18:06;;;;;;;1.40;1.30;;;6.20;99.90;;;;;;4894799;29;20283;-68
2023/03/06 14:20:42;;;;;;;0.90;0.90;;;6.20;99.90;;;;;;4880241;29;20216;-68
2023/03/06 14:23:21;;;;;;;0.95;0.95;;;6.10;99.90;;;;;;4885878;29;20240;-68
2023/03/06 14:25:54;;;;;;;4.13;3.75;;;6.00;99.90;;;;;;4896208;29;20227;-68
2023/03/06 14:28:26;;;;;;;0.88;0.88;;;5.90;99.90;;;;;;4889168;29;20207;-68
2023/03/06 14:30:55;;;;;;;0.88;0.88;;;5.90;99.90;;;;;;4891829;29;20227;-69
2023/03/06 14:33:31;;;;;;;0.70;0.70;;;5.80;99.90;;;;;;4913955;29;20207;-70
2023/03/06 14:36:02;;;;;;;0.30;0.30;;;5.80;99.90;;;;;;4901927;29;20297;-69
2023/03/06 14:38:34;;;;;;;0.45;0.45;;;5.80;99.90;;;;;;4896165;29;20211;-68
2023/03/06 14:41:02;;;;;;;0.40;0.40;;;5.80;99.90;;;;;;4890268;29;20258;-68
2023/03/06 14:43:30;;;;;;;7.40;0.68;;;5.70;99.90;;;;;;4896583;29;20378;-68
2023/03/06 14:45:59;;;;;;;0.63;0.63;;;5.70;99.90;;;;;;4896243;29;20247;-69
2023/03/06 14:48:37;;;;;;;0.60;0.60;;;5.70;99.90;;;;;;4894453;29;20336;-71
2023/03/06 14:51:07;;;;;;;0.73;0.73;;;5.60;99.90;;;;;;4895212;29;20234;-68
2023/03/06 14:53:34;;;;;;;1.75;0.90;;;5.60;99.90;;;;;;4895111;29;20301;-69
2023/03/06 14:56:03;;;;;;;0.70;0.70;;;5.60;99.90;;;;;;4890602;29;20211;-69
2023/03/06 14:58:33;;;;;;;2.30;2.30;;;5.50;99.90;;;;;;4909501;29;20218;-68
2023/03/06 15:01:04;;;;;;;3.08;2.05;;;5.60;99.90;;;;;;4898646;29;20246;-71
2023/03/06 15:03:42;;;;;;;1.17;1.17;;;5.50;99.90;;;;;;4893654;29;20207;-70
2023/03/06 15:06:16;;;;;;;1.13;1.05;;;5.50;99.90;;;;;;4898274;29;20706;-68
2023/03/06 15:08:46;;;;;;;3.33;0.65;;;5.60;99.90;;;;;;4889235;29;20215;-69
2023/03/06 15:11:13;;;;;;;2.72;1.10;;;5.60;99.90;;;;;;4897311;29;20227;-69
2023/03/06 15:13:40;;;;;;;0.65;0.65;;;5.60;99.90;;;;;;4893502;29;20207;-70
2023/03/06 15:16:21;;;;;;;1.13;1.13;;;5.50;99.90;;;;;;4894345;29;20203;-69
2023/03/06 15:18:56;;;;;;;0.55;0.55;;;5.50;99.90;;;;;;4891714;29;20207;-68
2023/03/06 15:21:27;;;;;;;2.97;1.00;;;5.40;99.90;;;;;;4894231;29;20692;-70
2023/03/06 15:23:55;;;;;;;2.90;1.50;;;5.30;99.90;;;;;;4897068;29;20215;-68
2023/03/06 15:26:30;;;;;;;1.15;1.15;;;5.30;99.90;;;;;;4897244;29;20227;-69
2023/03/06 15:29:02;;;;;;;1.15;1.05;;;5.30;99.90;;;;;;4888735;29;20215;-68
2023/03/06 15:31:31;;;;;;;2.22;2.08;;;5.20;99.90;;;;;;4888363;29;20231;-68
2023/03/06 15:34:22;;;;;;;2.17;2.08;;;5.20;99.90;;;;;;4892402;29;20433;-68
2023/03/06 15:36:55;;;;;;;0.98;0.98;;;5.20;99.90;;;;;;4896265;29;20613;-68
2023/03/06 15:39:36;;;;;;;0.77;0.50;;;5.20;99.90;;;;;;4895617;29;20212;-67
2023/03/06 15:42:15;;;;;;;0.40;0.40;;;5.10;99.90;;;;;;4887470;29;20235;-70
2023/03/06 15:44:42;;;;;;;4.90;1.08;;;5.10;99.90;;;;;;4895662;29;20207;-68
2023/03/06 15:47:11;;;;;;;1.33;1.23;;;5.10;99.90;;;;;;4891952;29;20533;-67
2023/03/06 15:49:38;;;;;;;1.55;1.27;;;5.10;99.90;;;;;;4899539;29;20219;-67
2023/03/06 15:52:07;;;;;;;0.90;0.90;;;5.10;99.90;;;;;;4889685;29;20294;-68
2023/03/06 15:54:34;;;;;;;1.67;1.15;;;5.10;99.90;;;;;;4892782;29;20216;-68
2023/03/06 15:57:03;;;;;;;4.85;2.85;;;5.10;99.90;;;;;;4896704;29;20543;-72
2023/03/06 15:59:32;;;;;;;1.10;1.10;;;5.10;99.90;;;;;;4901548;29;20293;-67
2023/03/06 16:02:02;;;;;;;1.55;1.45;;;5.10;99.90;;;;;;4898587;29;20247;-68
2023/03/06 16:04:29;;;;;;;15.07;0.95;;;5.10;99.90;;;;;;4884783;29;20212;-68
2023/03/06 16:06:57;;;;;;;0.63;0.63;;;5.10;99.90;;;;;;4881161;29;20310;-67
2023/03/06 16:09:25;;;;;;;6.80;0.80;;;5.00;99.90;;;;;;4892786;29;20626;-70
2023/03/06 16:11:52;;;;;;;1.10;1.10;;;5.00;99.90;;;;;;4881059;29;20300;-69
2023/03/06 16:14:22;;;;;;;0.60;0.60;;;5.00;99.90;;;;;;4894119;29;20223;-67
2023/03/06 16:16:50;;;;;;;0.25;0.25;;;5.00;99.90;;;;;;4888472;29;20199;-68
2023/03/06 16:19:19;;;;;;;2.05;1.80;;;4.90;99.90;;;;;;4893795;29;20211;-70
2023/03/06 16:21:45;;;;;;;1.25;1.13;;;4.90;99.90;;;;;;4891734;29;20767;-72
2023/03/06 16:24:14;;;;;;;0.77;0.77;;;4.90;99.90;;;;;;4881494;29;20295;-69
2023/03/06 16:26:44;;;;;;;1.95;1.35;;;4.90;99.90;;;;;;4877806;29;20235;-67
2023/03/06 16:29:16;;;;;;;0.30;0.30;;;4.80;99.90;;;;;;4888918;29;20242;-68
2023/03/06 16:31:43;;;;;;;0.43;0.43;;;4.80;99.90;;;;;;4886584;29;20295;-67
2023/03/06 16:34:09;;;;;;;1.35;1.17;;;4.70;99.90;;;;;;4887960;29;20222;-68
2023/03/06 16:36:36;;;;;;;0.95;0.50;;;4.70;99.90;;;;;;4896043;29;20210;-67
2023/03/06 16:39:03;;;;;;;0.40;0.40;;;4.60;99.90;;;;;;4894757;29;20212;-68
2023/03/06 16:41:30;;;;;;;2.40;0.70;;;4.60;99.90;;;;;;4888816;29;20850;-67
2023/03/06 16:44:00;;;;;;;1.60;0.98;;;4.50;99.90;;;;;;4891205;29;20295;-68
2023/03/06 16:46:26;;;;;;;0.70;0.70;;;4.50;99.90;;;;;;4888372;29;20576;-68
2023/03/06 16:48:53;;;;;;;1.92;1.23;;;4.50;99.90;;;;;;4889975;29;20219;-67
2023/03/06 16:51:22;;;;;;;2.78;1.73;;;4.40;99.90;;;;;;4893561;29;20242;-67
2023/03/06 16:53:50;;;;;;;1.15;1.15;;;4.40;99.90;;;;;;4887803;29;20649;-68
2023/03/06 16:56:19;;;;;;;0.90;0.85;;;4.30;99.90;;;;;;4895905;29;20227;-70
2023/03/06 16:58:46;;;;;;;1.50;1.40;;;4.30;99.90;;;;;;4913022;29;20214;-68
2023/03/06 17:01:17;;;;;;;1.05;1.05;;;4.30;99.90;;;;;;4897273;29;20246;-68
2023/03/06 17:03:44;;;;;;;1.35;1.27;;;4.20;99.90;;;;;;4889687;29;20235;-69
2023/03/06 17:06:15;;;;;;;2.83;2.47;;;4.10;99.90;;;;;;4887131;29;20231;-68
2023/03/06 17:08:42;;;;;;;11.05;3.25;;;4.10;99.90;;;;;;4897348;29;20283;-68
2023/03/06 17:11:10;;;;;;;3.60;2.22;;;4.10;99.90;;;;;;4894011;29;20231;-68
2023/03/06 17:13:36;;;;;;;10.10;6.32;;;4.00;99.90;;;;;;4887361;29;20223;-69
2023/03/06 17:16:04;;;;;;;6.28;3.35;;;4.00;99.90;;;;;;4881186;29;20212;-68
2023/03/06 17:18:32;;;;;;;2.13;1.98;;;3.90;99.90;;;;;;4889195;29;20215;-71
2023/03/06 17:20:59;;;;;;;1.75;1.65;;;3.90;99.90;;;;;;4894278;29;20249;-70
2023/03/06 17:23:29;;;;;;;3.72;1.90;;;3.80;99.90;;;;;;4901629;29;20652;-69
2023/03/06 17:26:06;;;;;;;3.08;2.83;;;3.80;99.90;;;;;;4890479;29;20298;-70
2023/03/06 17:28:33;;;;;;;4.00;2.38;;;3.70;99.90;;;;;;4892743;29;20341;-70
2023/03/06 17:31:01;;;;;;;1.67;1.55;;;3.70;99.90;;;;;;4905433;29;20223;-69
2023/03/06 17:33:28;;;;;;;1.27;1.27;;;3.60;99.90;;;;;;4896880;29;20211;-71
2023/03/06 17:36:00;;;;;;;3.65;2.58;;;3.60;99.90;;;;;;4897373;29;20199;-72
2023/03/06 17:38:27;;;;;;;14.60;7.65;;;3.50;99.90;;;;;;4896548;29;20340;-72
2023/03/06 17:40:54;;;;;;;18.33;7.50;;;3.50;99.90;;;;;;4903659;29;20258;-71
2023/03/06 17:43:21;;;;;;;7.93;7.32;;;3.50;99.90;;;;;;4895259;29;20214;-71
2023/03/06 17:45:48;;;;;;;4.50;1.77;;;3.40;99.90;;;;;;4892166;29;20314;-70
2023/03/06 17:48:14;;;;;;;3.25;1.75;;;3.40;99.90;;;;;;4888137;29;20661;-70
2023/03/06 17:50:42;;;;;;;3.47;3.15;;;3.40;99.90;;;;;;4894752;29;20241;-71
2023/03/06 17:53:10;;;;;;;2.13;2.10;;;3.40;99.90;;;;;;4907229;29;20222;-70
2023/03/06 17:55:39;;;;;;;3.40;2.03;;;3.30;99.90;;;;;;4911813;29;20225;-70
2023/03/06 17:58:06;;;;;;;3.90;2.22;;;3.30;99.90;;;;;;4913194;29;20206;-69
2023/03/06 18:00:33;;;;;;;2.92;1.83;;;3.30;99.90;;;;;;4910148;29;20223;-70
2023/03/06 18:02:59;;;;;;;1.73;1.67;;;3.20;99.90;;;;;;4910663;29;20692;-71
2023/03/06 18:05:26;;;;;;;2.05;1.92;;;3.20;99.90;;;;;;4894936;29;20217;-71
2023/03/06 18:07:53;;;;;;;5.55;4.47;;;3.20;99.90;;;;;;4891440;29;20292;-71
2023/03/06 18:10:22;;;;;;;4.43;4.13;;;3.10;99.90;;;;;;4898108;29;20238;-70
2023/03/06 18:12:48;;;;;;;6.32;5.80;;;3.10;99.90;;;;;;4890910;29;20222;-71
2023/03/06 18:15:15;;;;;;;4.43;3.97;;;3.10;99.90;;;;;;4889548;29;20267;-70
2023/03/06 18:17:42;;;;;;;5.25;3.53;;;3.10;99.90;;;;;;4898296;29;20230;-71
2023/03/06 18:20:10;;;;;;;5.65;5.10;;;3.10;99.90;;;;;;4891342;29;20669;-70